createdAt,value
2023-02-01T00:00:26.701Z,73.80
2023-02-01T00:05:31.476Z,74.00
2023-02-01T00:10:34.830Z,73.60
2023-02-01T00:15:38.206Z,73.70
2023-02-01T00:20:48.057Z,74.00
2023-02-01T00:25:51.437Z,73.70
2023-02-01T00:30:59.383Z,73.80
2023-02-01T00:36:06.371Z,73.60
2023-02-01T00:41:12.601Z,73.50
2023-02-01T00:46:17.501Z,73.40
2023-02-01T00:51:24.297Z,73.30
2023-02-01T00:56:29.341Z,73.50
2023-02-01T01:01:32.699Z,73.50
2023-02-01T01:06:37.527Z,73.40
2023-02-01T01:11:41.399Z,73.10
2023-02-01T01:16:44.836Z,73.50
2023-02-01T01:21:49.732Z,73.40
2023-02-01T01:26:53.144Z,72.90
2023-02-01T01:31:56.558Z,72.90
2023-02-01T01:37:01.378Z,72.80
2023-02-01T01:42:04.862Z,73.00
2023-02-01T01:47:08.247Z,73.10
2023-02-01T01:52:13.604Z,72.90
2023-02-01T01:57:20.182Z,73.10
2023-02-01T02:02:23.770Z,72.60
2023-02-01T02:07:33.074Z,72.20
2023-02-01T02:12:36.502Z,72.60
2023-02-01T02:17:47.247Z,72.30
2023-02-01T02:23:17.854Z,72.20
2023-02-01T02:29:02.814Z,72.20
2023-02-01T02:34:15.210Z,72.10
2023-02-01T02:39:25.676Z,72.00
2023-02-01T02:44:52.291Z,71.90
2023-02-01T02:50:21.443Z,71.70
2023-02-01T02:55:25.868Z,71.90
2023-02-01T03:00:49.586Z,72.10
2023-02-01T03:05:54.637Z,71.90
2023-02-01T03:11:00.121Z,72.00
2023-02-01T03:16:06.959Z,71.40
2023-02-01T03:21:15.469Z,71.80
2023-02-01T03:26:20.462Z,71.40
2023-02-01T03:31:24.366Z,71.40
2023-02-01T03:36:32.971Z,71.60
2023-02-01T03:41:39.811Z,71.50
2023-02-01T03:46:46.192Z,71.60
2023-02-01T03:51:52.479Z,71.30
2023-02-01T03:56:57.585Z,71.50
2023-02-01T04:02:01.191Z,71.20
2023-02-01T04:07:06.178Z,71.50
2023-02-01T04:12:09.746Z,71.30
2023-02-01T04:17:13.225Z,71.10
2023-02-01T04:22:18.256Z,71.20
2023-02-01T04:27:21.758Z,71.10
2023-02-01T04:32:25.233Z,71.00
2023-02-01T04:37:30.248Z,71.40
2023-02-01T04:42:33.754Z,71.30
2023-02-01T04:47:37.218Z,71.30
2023-02-01T04:52:42.589Z,71.10
2023-02-01T04:57:46.207Z,71.10
2023-02-01T05:02:49.686Z,71.60
2023-02-01T05:07:54.600Z,71.10
2023-02-01T05:13:15.691Z,71.50
2023-02-01T05:18:19.202Z,71.20
2023-02-01T05:23:24.104Z,71.10
2023-02-01T05:28:27.646Z,71.00
2023-02-01T05:33:31.188Z,71.10
2023-02-01T05:38:36.119Z,71.30
2023-02-01T05:43:39.643Z,71.60
2023-02-01T05:48:43.993Z,71.20
2023-02-01T05:53:48.855Z,71.40
2023-02-01T05:58:52.464Z,71.00
2023-02-01T06:03:55.975Z,71.10
2023-02-01T06:09:01.335Z,71.10
2023-02-01T06:14:04.824Z,70.90
2023-02-01T06:19:08.285Z,70.90
2023-02-01T06:24:13.265Z,71.10
2023-02-01T06:29:16.813Z,71.10
2023-02-01T06:34:22.157Z,71.20
2023-02-01T06:39:28.675Z,71.20
2023-02-01T06:44:32.222Z,71.20
2023-02-01T06:49:35.711Z,71.40
2023-02-01T06:54:40.624Z,71.40
2023-02-01T06:59:44.084Z,71.40
2023-02-01T07:04:47.581Z,71.50
2023-02-01T07:09:52.529Z,71.30
2023-02-01T07:14:56.036Z,71.30
2023-02-01T07:20:01.065Z,71.30
2023-02-01T07:25:07.170Z,71.20
2023-02-01T07:30:12.196Z,71.20
2023-02-01T07:35:16.441Z,71.50
2023-02-01T07:40:26.251Z,71.60
2023-02-01T07:45:29.802Z,71.40
2023-02-01T07:50:33.578Z,71.20
2023-02-01T07:55:40.049Z,71.40
2023-02-01T08:01:01.346Z,71.30
2023-02-01T08:06:05.633Z,71.10
2023-02-01T08:11:11.118Z,71.40
2023-02-01T08:16:15.905Z,71.00
2023-02-01T08:21:21.412Z,71.10
2023-02-01T08:26:27.584Z,71.40
2023-02-01T08:31:31.901Z,71.20
2023-02-01T08:36:35.520Z,71.20
2023-02-01T08:41:41.186Z,71.30
2023-02-01T08:46:44.607Z,71.50
2023-02-01T08:51:48.071Z,71.50
2023-02-01T08:56:52.996Z,71.30
2023-02-01T09:01:58.308Z,71.40
2023-02-01T09:07:01.834Z,71.40
2023-02-01T09:12:07.387Z,71.30
2023-02-01T09:17:10.946Z,71.40
2023-02-01T09:22:14.424Z,71.80
2023-02-01T09:27:19.262Z,71.50
2023-02-01T09:32:23.484Z,71.30
2023-02-01T09:37:27.236Z,71.60
2023-02-01T09:42:49.210Z,71.60
2023-02-01T09:47:56.307Z,71.70
2023-02-01T09:53:02.926Z,71.60
2023-02-01T09:58:10.268Z,71.80
2023-02-01T10:03:14.835Z,71.60
2023-02-01T10:08:27.442Z,71.80
2023-02-01T10:13:44.267Z,72.20
2023-02-01T10:19:17.928Z,72.10
2023-02-01T10:24:31.689Z,72.00
2023-02-01T10:29:40.063Z,72.20
2023-02-01T10:34:43.873Z,72.20
2023-02-01T10:39:49.003Z,71.90
2023-02-01T10:44:54.110Z,71.90
2023-02-01T10:50:02.964Z,72.10
2023-02-01T10:55:41.042Z,72.50
2023-02-01T11:00:49.435Z,72.10
2023-02-01T11:05:52.865Z,72.40
2023-02-01T11:11:01.770Z,72.50
2023-02-01T11:16:08.185Z,72.70
2023-02-01T11:21:12.731Z,72.50
2023-02-01T11:26:21.999Z,72.60
2023-02-01T11:31:27.737Z,72.30
2023-02-01T11:36:34.040Z,72.60
2023-02-01T11:41:43.782Z,72.90
2023-02-01T11:46:48.966Z,72.90
2023-02-01T11:52:04.814Z,73.00
2023-02-01T11:57:18.024Z,72.50
2023-02-01T12:02:41.944Z,72.70
2023-02-01T12:07:57.450Z,73.00
2023-02-01T12:13:11.861Z,72.70
2023-02-01T12:18:53.941Z,72.70
2023-02-01T12:24:08.055Z,72.80
2023-02-01T12:29:28.758Z,72.80
2023-02-01T12:35:10.822Z,73.10
2023-02-01T12:40:23.192Z,73.00
2023-02-01T12:45:31.646Z,73.20
2023-02-01T12:50:41.829Z,73.20
2023-02-01T12:55:51.709Z,73.00
2023-02-01T13:01:01.323Z,72.70
2023-02-01T13:06:09.941Z,73.40
2023-02-01T13:11:19.263Z,73.10
2023-02-01T13:16:28.379Z,73.00
2023-02-01T13:21:35.592Z,73.20
2023-02-01T13:26:39.163Z,72.80
2023-02-01T13:31:55.155Z,73.00
2023-02-01T13:37:13.943Z,73.00
2023-02-01T13:42:23.243Z,72.60
2023-02-01T13:47:29.515Z,73.20
2023-02-01T13:52:40.315Z,73.50
2023-02-01T13:57:44.944Z,72.80
2023-02-01T14:02:53.592Z,73.20
2023-02-01T14:08:15.419Z,73.70
2023-02-01T14:13:27.221Z,73.70
2023-02-01T14:18:59.134Z,73.40
2023-02-01T14:24:07.385Z,73.90
2023-02-01T14:29:26.510Z,73.70
2023-02-01T14:34:38.934Z,73.60
2023-02-01T14:39:54.940Z,73.40
2023-02-01T14:45:20.100Z,73.70
2023-02-01T14:50:34.827Z,73.80
2023-02-01T14:55:42.737Z,73.60
2023-02-01T15:00:50.496Z,74.00
2023-02-01T15:05:58.010Z,73.90
2023-02-01T15:11:04.636Z,74.20
2023-02-01T15:16:12.990Z,74.20
2023-02-01T15:21:28.605Z,74.20
2023-02-01T15:26:37.846Z,74.60
2023-02-01T15:31:43.966Z,74.20
2023-02-01T15:37:02.056Z,74.50
2023-02-01T15:42:16.729Z,74.60
2023-02-01T15:47:22.974Z,74.70
2023-02-01T15:52:29.104Z,74.50
2023-02-01T15:57:36.533Z,75.00
2023-02-01T16:02:45.517Z,74.80
2023-02-01T16:07:58.068Z,74.90
2023-02-01T16:13:02.979Z,75.20
2023-02-01T16:18:08.186Z,75.00
2023-02-01T16:23:12.672Z,75.10
2023-02-01T16:28:17.551Z,74.80
2023-02-01T16:33:23.056Z,75.00
2023-02-01T16:38:27.511Z,75.00
2023-02-01T16:43:32.436Z,75.20
2023-02-01T16:48:37.592Z,75.20
2023-02-01T16:53:53.371Z,75.40
2023-02-01T16:58:59.055Z,75.30
2023-02-01T17:04:03.641Z,75.30
2023-02-01T17:09:07.765Z,75.40
2023-02-01T17:14:17.387Z,75.20
2023-02-01T17:19:24.706Z,75.60
2023-02-01T17:24:42.502Z,75.10
2023-02-01T17:29:54.092Z,75.50
2023-02-01T17:34:58.646Z,75.40
2023-02-01T17:40:03.190Z,75.40
2023-02-01T17:45:37.784Z,75.30
2023-02-01T17:50:41.458Z,75.50
2023-02-01T17:55:46.964Z,75.70
2023-02-01T18:00:52.425Z,75.50
2023-02-01T18:05:57.128Z,75.50
2023-02-01T18:11:02.669Z,75.80
2023-02-01T18:16:08.639Z,75.70
2023-02-01T18:21:12.382Z,75.50
2023-02-01T18:26:19.505Z,75.40
2023-02-01T18:31:27.787Z,75.70
2023-02-01T18:36:31.663Z,75.60
2023-02-01T18:41:35.432Z,75.50
2023-02-01T18:46:40.332Z,75.60
2023-02-01T18:51:44.420Z,75.60
2023-02-01T18:56:47.923Z,75.70
2023-02-01T19:01:52.838Z,75.80
2023-02-01T19:06:56.367Z,75.60
2023-02-01T19:11:59.803Z,75.60
2023-02-01T19:17:04.738Z,75.70
2023-02-01T19:22:08.200Z,75.90
2023-02-01T19:27:11.651Z,75.90
2023-02-01T19:32:16.414Z,75.80
2023-02-01T19:37:20.024Z,75.70
2023-02-01T19:42:23.489Z,76.00
2023-02-01T19:47:28.412Z,75.80
2023-02-01T19:52:31.934Z,75.80
2023-02-01T19:57:36.553Z,75.80
2023-02-01T20:02:40.922Z,75.70
2023-02-01T20:07:44.377Z,75.80
2023-02-01T20:12:49.448Z,75.60
2023-02-01T20:17:54.411Z,75.60
2023-02-01T20:22:57.971Z,75.70
2023-02-01T20:28:02.313Z,75.80
2023-02-01T20:33:07.265Z,75.70
2023-02-01T20:38:10.758Z,75.50
2023-02-01T20:43:14.221Z,75.60
2023-02-01T20:48:19.116Z,75.70
2023-02-01T20:53:26.889Z,75.70
2023-02-01T20:58:31.461Z,75.80
2023-02-01T21:03:36.834Z,75.90
2023-02-01T21:08:41.581Z,75.70
2023-02-01T21:13:50.807Z,75.80
2023-02-01T21:18:55.904Z,75.60
2023-02-01T21:23:59.862Z,75.60
2023-02-01T21:29:03.394Z,75.50
2023-02-01T21:34:08.362Z,75.70
2023-02-01T21:39:12.565Z,75.70
2023-02-01T21:44:16.137Z,75.70
2023-02-01T21:49:21.029Z,75.60
2023-02-01T21:54:25.076Z,75.40
2023-02-01T21:59:28.597Z,75.70
2023-02-01T22:04:33.542Z,75.60
2023-02-01T22:09:37.464Z,75.60
2023-02-01T22:14:41.109Z,75.70
2023-02-01T22:19:45.949Z,75.60
2023-02-01T22:24:49.454Z,75.70
2023-02-01T22:29:52.970Z,75.80
2023-02-01T22:34:57.864Z,75.40
2023-02-01T22:40:02.456Z,75.40
2023-02-01T22:45:06.292Z,75.50
2023-02-01T22:50:12.716Z,75.60
2023-02-01T22:55:16.374Z,75.50
2023-02-01T23:00:20.366Z,75.50
2023-02-01T23:05:25.475Z,75.50
2023-02-01T23:10:29.178Z,75.40
2023-02-01T23:15:32.658Z,75.70
2023-02-01T23:20:37.554Z,75.40
2023-02-01T23:25:41.085Z,75.60
2023-02-01T23:30:44.604Z,75.50
2023-02-01T23:35:57.347Z,75.40
2023-02-01T23:41:01.876Z,75.40
2023-02-01T23:46:05.632Z,75.60
2023-02-01T23:51:10.488Z,75.40
2023-02-01T23:56:19.336Z,75.40
